Time;durP1;ratioP1;P1;durP2;ratioP2;P2;SDS_P1;SDS_P2;PMS_P1;PMS_P2;Temp;Humidity;BMP_temperature;BMP_pressure;BME280_temperature;BME280_humidity;BME280_pressure;Samples;Min_cycle;Max_cycle;Signal;HPM_P1;HPM_P2
2024/02/21 00:00:56;;;;;;;17.10;5.50;;;8.20;99.90;;;;;;2069366;28;20022;-84
2024/02/21 00:01:57;;;;;;;18.42;6.13;;;8.30;99.90;;;;;;2071168;28;20057;-82
2024/02/21 00:02:59;;;;;;;17.42;5.88;;;8.30;99.90;;;;;;2066020;28;20111;-85
2024/02/21 00:03:59;;;;;;;19.98;5.47;;;8.30;99.90;;;;;;2064301;28;20034;-86
2024/02/21 00:05:00;;;;;;;20.50;5.70;;;8.30;99.90;;;;;;2064756;28;20045;-87
2024/02/21 00:06:00;;;;;;;17.67;5.70;;;8.30;99.90;;;;;;2065645;28;20517;-86
2024/02/21 00:07:01;;;;;;;18.88;5.60;;;8.30;99.90;;;;;;2066536;28;20034;-89
2024/02/21 00:08:03;;;;;;;15.65;5.75;;;8.30;99.90;;;;;;2064030;28;20077;-88
2024/02/21 00:09:03;;;;;;;13.35;5.03;;;8.30;99.90;;;;;;2057574;28;20121;-88
2024/02/21 00:10:04;;;;;;;16.95;5.45;;;8.20;99.90;;;;;;2058568;28;20031;-87
2024/02/21 00:11:05;;;;;;;19.60;6.05;;;8.30;99.90;;;;;;2064129;28;20088;-89
2024/02/21 00:12:06;;;;;;;19.30;5.68;;;8.30;99.90;;;;;;2063188;28;20027;-87
2024/02/21 00:13:07;;;;;;;20.10;5.90;;;8.30;99.90;;;;;;2063915;28;20034;-87
2024/02/21 00:14:07;;;;;;;16.50;5.50;;;8.30;99.90;;;;;;2065490;28;20057;-85
2024/02/21 00:15:08;;;;;;;17.27;5.47;;;8.30;99.90;;;;;;2067208;28;20014;-86
2024/02/21 00:16:10;;;;;;;18.60;6.03;;;8.30;99.90;;;;;;2065440;28;20497;-84
2024/02/21 00:17:11;;;;;;;15.05;5.68;;;8.30;99.90;;;;;;2063502;28;20058;-88
2024/02/21 00:18:12;;;;;;;19.42;5.68;;;8.30;99.90;;;;;;2058135;28;20022;-86
2024/02/21 00:19:14;;;;;;;18.42;5.25;;;8.30;99.90;;;;;;2068878;28;20030;-87
2024/02/21 00:20:14;;;;;;;17.00;5.50;;;8.30;99.90;;;;;;2069078;28;20022;-86
2024/02/21 00:21:17;;;;;;;16.83;5.45;;;8.30;99.90;;;;;;2065962;28;20125;-89
2024/02/21 00:22:18;;;;;;;19.13;5.50;;;8.30;99.90;;;;;;2068520;28;20117;-89
2024/02/21 00:23:18;;;;;;;19.65;5.43;;;8.30;99.90;;;;;;2066889;28;20033;-87
2024/02/21 00:24:19;;;;;;;16.88;5.13;;;8.30;99.90;;;;;;2068498;28;20037;-87
2024/02/21 00:25:19;;;;;;;17.83;5.50;;;8.30;99.90;;;;;;2068290;28;20069;-90
2024/02/21 00:26:20;;;;;;;20.15;5.55;;;8.30;99.90;;;;;;2063158;28;20017;-89
2024/02/21 00:27:21;;;;;;;19.65;5.60;;;8.30;99.90;;;;;;2052982;28;20485;-88
2024/02/21 00:28:21;;;;;;;19.98;5.88;;;8.30;99.90;;;;;;2066002;28;20029;-87
2024/02/21 00:29:22;;;;;;;19.17;5.75;;;8.30;99.90;;;;;;2067433;28;20034;-87
2024/02/21 00:30:23;;;;;;;16.08;5.45;;;8.20;99.90;;;;;;2064846;28;20054;-86
2024/02/21 00:31:23;;;;;;;16.85;5.72;;;8.30;99.90;;;;;;2059892;28;20026;-86
2024/02/21 00:32:24;;;;;;;17.88;5.47;;;8.20;99.90;;;;;;2066364;28;20599;-86
2024/02/21 00:33:24;;;;;;;14.23;5.13;;;8.30;99.90;;;;;;2066773;28;20166;-86
2024/02/21 00:34:25;;;;;;;16.92;5.40;;;8.30;99.90;;;;;;2065363;28;20030;-87
2024/02/21 00:35:25;;;;;;;16.67;5.90;;;8.30;99.90;;;;;;2065575;28;20039;-86
2024/02/21 00:36:26;;;;;;;18.08;5.53;;;8.20;99.90;;;;;;2062373;28;20026;-84
2024/02/21 00:37:27;;;;;;;18.20;5.70;;;8.20;99.90;;;;;;2067805;28;20030;-89
2024/02/21 00:38:27;;;;;;;15.50;5.30;;;8.20;99.90;;;;;;2071969;28;20109;-83
2024/02/21 00:39:28;;;;;;;13.60;5.20;;;8.20;99.90;;;;;;2070692;28;20046;-86
2024/02/21 00:40:29;;;;;;;17.88;5.55;;;8.30;99.90;;;;;;2070282;28;20041;-86
2024/02/21 00:41:30;;;;;;;20.13;5.65;;;8.30;99.90;;;;;;2067054;28;20022;-85
2024/02/21 00:42:30;;;;;;;20.95;5.90;;;8.30;99.90;;;;;;2071356;28;20034;-88
2024/02/21 00:43:31;;;;;;;15.57;4.97;;;8.30;99.90;;;;;;2071390;28;20019;-86
2024/02/21 00:44:32;;;;;;;18.33;5.65;;;8.30;99.90;;;;;;2069357;28;20438;-86
2024/02/21 00:45:33;;;;;;;16.90;5.10;;;8.20;99.90;;;;;;2069811;28;20023;-87
2024/02/21 00:46:33;;;;;;;14.82;5.03;;;8.30;99.90;;;;;;2067829;28;20026;-89
2024/02/21 00:47:34;;;;;;;18.33;5.25;;;8.30;99.90;;;;;;2068614;28;20043;-86
2024/02/21 00:48:34;;;;;;;17.92;5.50;;;8.20;99.90;;;;;;2068603;28;20022;-87
2024/02/21 00:49:35;;;;;;;16.30;5.47;;;8.30;99.90;;;;;;2066752;28;20022;-87
2024/02/21 00:50:37;;;;;;;16.60;5.53;;;8.30;99.90;;;;;;2065465;28;20041;-86
2024/02/21 00:51:38;;;;;;;16.58;5.53;;;8.30;99.90;;;;;;2062519;28;20100;-86
2024/02/21 00:52:38;;;;;;;17.80;5.47;;;8.30;99.90;;;;;;2065757;28;20057;-87
2024/02/21 00:53:39;;;;;;;18.60;5.25;;;8.20;99.90;;;;;;2065124;28;20023;-87
2024/02/21 00:54:39;;;;;;;19.60;5.50;;;8.30;99.90;;;;;;2066114;28;20037;-84
2024/02/21 00:55:40;;;;;;;16.52;5.20;;;8.30;99.90;;;;;;2066694;28;20045;-87
2024/02/21 00:56:40;;;;;;;15.00;5.55;;;8.30;99.90;;;;;;2061636;28;20034;-86
2024/02/21 00:57:41;;;;;;;18.73;5.75;;;8.30;99.90;;;;;;2063288;28;20019;-87
2024/02/21 00:58:42;;;;;;;16.27;5.00;;;8.30;99.90;;;;;;2065508;28;20026;-86
2024/02/21 00:59:42;;;;;;;18.00;5.43;;;8.30;99.90;;;;;;2070425;28;20034;-85
2024/02/21 01:00:43;;;;;;;20.23;5.68;;;8.30;99.90;;;;;;2064578;28;20010;-86
2024/02/21 01:01:43;;;;;;;16.00;5.32;;;8.30;99.90;;;;;;2065421;28;20040;-85
2024/02/21 01:02:44;;;;;;;20.75;5.25;;;8.30;99.90;;;;;;2064994;28;20027;-87
2024/02/21 01:03:44;;;;;;;20.23;5.13;;;8.20;99.90;;;;;;2063495;28;20023;-86
2024/02/21 01:04:45;;;;;;;16.00;5.20;;;8.20;99.90;;;;;;2064452;28;20058;-86
2024/02/21 01:05:46;;;;;;;17.13;5.20;;;8.30;99.90;;;;;;2063509;28;20132;-85
2024/02/21 01:06:46;;;;;;;16.90;5.07;;;8.30;99.90;;;;;;2055134;28;20106;-85
2024/02/21 01:07:47;;;;;;;18.85;5.35;;;8.20;99.90;;;;;;2059315;28;20077;-82
2024/02/21 01:08:48;;;;;;;19.38;5.40;;;8.30;99.90;;;;;;2063237;28;20034;-85
2024/02/21 01:09:48;;;;;;;16.05;5.35;;;8.20;99.90;;;;;;2059661;28;20067;-82
2024/02/21 01:10:49;;;;;;;17.33;5.20;;;8.20;99.90;;;;;;2058892;28;20396;-84
2024/02/21 01:11:49;;;;;;;14.95;4.85;;;8.30;99.90;;;;;;2060480;28;20512;-85
2024/02/21 01:12:50;;;;;;;16.40;4.97;;;8.20;99.90;;;;;;2060008;28;20027;-84
2024/02/21 01:13:50;;;;;;;17.70;5.10;;;8.20;99.90;;;;;;2063555;28;20146;-86
2024/02/21 01:14:51;;;;;;;16.25;4.88;;;8.20;99.90;;;;;;2063785;28;20054;-85
2024/02/21 01:15:52;;;;;;;20.60;5.55;;;8.20;99.90;;;;;;2065085;28;20030;-87
2024/02/21 01:16:52;;;;;;;18.17;5.43;;;8.20;99.90;;;;;;2066094;28;20054;-88
2024/02/21 01:17:54;;;;;;;16.98;5.03;;;8.20;99.90;;;;;;2060545;28;20030;-84
2024/02/21 01:18:55;;;;;;;18.40;5.15;;;8.20;99.90;;;;;;2063888;28;20038;-87
2024/02/21 01:19:55;;;;;;;13.98;5.03;;;8.20;99.90;;;;;;2066783;28;20030;-85
2024/02/21 01:20:56;;;;;;;14.30;5.05;;;8.20;99.90;;;;;;2064293;28;20045;-86
2024/02/21 01:21:56;;;;;;;17.60;5.50;;;8.20;99.90;;;;;;2059105;28;20481;-86
2024/02/21 01:22:57;;;;;;;14.45;4.82;;;8.30;99.90;;;;;;2059738;28;20030;-87
2024/02/21 01:23:57;;;;;;;17.38;5.30;;;8.30;99.90;;;;;;2066602;28;20023;-89
2024/02/21 01:24:58;;;;;;;16.05;5.30;;;8.20;99.90;;;;;;2067054;28;20033;-86
2024/02/21 01:25:58;;;;;;;17.85;5.40;;;8.20;99.90;;;;;;2061700;28;20409;-86
2024/02/21 01:26:59;;;;;;;18.58;5.18;;;8.30;99.90;;;;;;2064065;28;20559;-85
2024/02/21 01:28:00;;;;;;;18.48;5.43;;;8.30;99.90;;;;;;2068595;28;20018;-87
2024/02/21 01:29:00;;;;;;;15.35;4.97;;;8.20;99.90;;;;;;2063021;28;20488;-88
2024/02/21 01:30:01;;;;;;;17.60;5.03;;;8.20;99.90;;;;;;2063517;28;20362;-89
2024/02/21 01:31:01;;;;;;;17.92;5.35;;;8.20;99.90;;;;;;2065893;28;20030;-88
2024/02/21 01:32:02;;;;;;;19.10;5.32;;;8.20;99.90;;;;;;2066884;28;20030;-88
2024/02/21 01:33:03;;;;;;;15.15;5.03;;;8.10;99.90;;;;;;2065000;28;20109;-86
2024/02/21 01:34:04;;;;;;;16.35;5.20;;;8.20;99.90;;;;;;2065767;28;20029;-87
2024/02/21 01:35:05;;;;;;;15.68;5.57;;;8.10;99.90;;;;;;2067768;28;20029;-88
2024/02/21 01:36:08;;;;;;;19.65;5.90;;;8.10;99.90;;;;;;2067394;28;20026;-87
2024/02/21 01:37:09;;;;;;;15.65;5.20;;;8.10;99.90;;;;;;2066894;28;20026;-88
2024/02/21 01:38:10;;;;;;;22.70;5.50;;;8.10;99.90;;;;;;2068911;28;20026;-85
2024/02/21 01:39:11;;;;;;;17.48;5.32;;;8.10;99.90;;;;;;2068284;28;20038;-86
2024/02/21 01:40:12;;;;;;;18.63;5.07;;;8.20;99.90;;;;;;2067430;28;20065;-84
2024/02/21 01:41:12;;;;;;;17.55;5.68;;;8.10;99.90;;;;;;2067057;28;20038;-86
2024/02/21 01:42:13;;;;;;;14.93;5.13;;;8.10;99.90;;;;;;2069941;28;20025;-90
2024/02/21 01:43:18;;;;;;;17.63;5.55;;;8.20;99.90;;;;;;2068646;28;20030;-87
2024/02/21 01:44:19;;;;;;;15.88;5.63;;;8.10;99.90;;;;;;2067386;28;20037;-88
2024/02/21 01:45:19;;;;;;;16.73;5.00;;;8.20;99.90;;;;;;2067200;28;20481;-90
2024/02/21 01:46:20;;;;;;;16.70;5.22;;;8.10;99.90;;;;;;2067111;28;20144;-88
2024/02/21 01:47:20;;;;;;;17.00;5.35;;;8.10;99.90;;;;;;2067203;28;20072;-88
2024/02/21 01:48:25;;;;;;;14.98;5.35;;;8.10;99.90;;;;;;2062722;28;20014;-86
2024/02/21 01:49:26;;;;;;;18.88;5.25;;;8.10;99.90;;;;;;2063257;28;20041;-89
2024/02/21 01:50:28;;;;;;;17.52;5.40;;;8.10;99.90;;;;;;2066956;28;20519;-85
2024/02/21 01:51:29;;;;;;;12.50;4.85;;;8.10;99.90;;;;;;2065614;28;20467;-89
2024/02/21 01:52:30;;;;;;;16.35;5.40;;;8.10;99.90;;;;;;2064428;28;20042;-88
2024/02/21 01:53:36;;;;;;;17.40;5.32;;;8.20;99.90;;;;;;2061609;28;20114;-86
2024/02/21 01:54:37;;;;;;;20.95;5.47;;;8.10;99.90;;;;;;2065601;28;20500;-84
2024/02/21 01:55:38;;;;;;;16.40;5.22;;;8.20;99.90;;;;;;2061169;28;20030;-88
2024/02/21 01:56:39;;;;;;;18.88;5.32;;;8.10;99.90;;;;;;2065338;28;20087;-88
2024/02/21 01:57:42;;;;;;;14.40;4.85;;;8.10;99.90;;;;;;2066369;28;20057;-85
2024/02/21 01:58:44;;;;;;;17.90;5.65;;;8.10;99.90;;;;;;2066617;28;20030;-86
2024/02/21 01:59:45;;;;;;;15.63;5.35;;;8.10;99.90;;;;;;2067414;28;20038;-90
2024/02/21 02:00:47;;;;;;;15.35;5.50;;;8.00;99.90;;;;;;2068099;28;20088;-86
2024/02/21 02:01:48;;;;;;;20.20;5.40;;;8.00;99.90;;;;;;2065438;28;20643;-88
2024/02/21 02:02:49;;;;;;;16.35;5.10;;;8.00;99.90;;;;;;2065928;28;20073;-86
2024/02/21 02:03:49;;;;;;;18.63;5.60;;;8.00;99.90;;;;;;2063075;28;20030;-88
2024/02/21 02:04:51;;;;;;;16.95;5.35;;;7.90;99.90;;;;;;2067061;28;20050;-88
2024/02/21 02:05:52;;;;;;;21.40;6.07;;;7.90;99.90;;;;;;2072637;28;20022;-88
2024/02/21 02:06:54;;;;;;;16.13;5.45;;;7.90;99.90;;;;;;2066620;28;20154;-90
2024/02/21 02:07:55;;;;;;;19.83;5.70;;;7.90;99.90;;;;;;2062231;28;20547;-89
2024/02/21 02:08:56;;;;;;;20.38;5.68;;;7.90;99.90;;;;;;2062870;28;20026;-89
2024/02/21 02:09:57;;;;;;;16.27;5.50;;;7.90;99.90;;;;;;2063631;28;20129;-75
2024/02/21 02:10:58;;;;;;;15.48;5.28;;;7.90;99.90;;;;;;2058288;28;20035;-72
2024/02/21 02:12:00;;;;;;;16.42;5.40;;;8.00;99.90;;;;;;2060194;28;20512;-69
2024/02/21 02:13:00;;;;;;;19.10;5.45;;;8.00;99.90;;;;;;2057242;28;20035;-69
2024/02/21 02:14:01;;;;;;;19.48;5.40;;;8.00;99.90;;;;;;2058114;28;20527;-69
2024/02/21 02:15:05;;;;;;;16.27;5.55;;;8.00;99.90;;;;;;2057337;28;20057;-69
2024/02/21 02:16:06;;;;;;;19.02;5.40;;;8.00;99.90;;;;;;2062032;28;20030;-68
2024/02/21 02:17:07;;;;;;;15.70;5.38;;;8.00;99.90;;;;;;2060595;28;20396;-69
2024/02/21 02:18:08;;;;;;;15.60;5.45;;;8.00;99.90;;;;;;2059976;28;20022;-69
2024/02/21 02:19:12;;;;;;;19.80;5.65;;;8.00;99.90;;;;;;2060184;28;20031;-68
2024/02/21 02:20:13;;;;;;;17.33;5.53;;;8.00;99.90;;;;;;2062159;28;20527;-68
2024/02/21 02:21:34;;;;;;;16.63;5.43;;;8.00;99.90;;;;;;2059033;28;20114;-68
2024/02/21 02:22:38;;;;;;;21.65;5.50;;;8.00;99.90;;;;;;2061027;28;20496;-68
2024/02/21 02:23:39;;;;;;;14.32;5.20;;;8.00;99.90;;;;;;2060855;28;20505;-68
2024/02/21 02:24:40;;;;;;;15.40;5.35;;;8.00;99.90;;;;;;2060921;28;20034;-68
2024/02/21 02:25:40;;;;;;;17.35;5.43;;;8.00;99.90;;;;;;2059334;28;20026;-68
2024/02/21 02:26:41;;;;;;;15.70;5.28;;;8.00;99.90;;;;;;2058149;28;20084;-68
2024/02/21 02:27:44;;;;;;;19.02;5.60;;;8.00;99.90;;;;;;2060917;28;20082;-68
2024/02/21 02:28:44;;;;;;;19.55;5.72;;;8.00;99.90;;;;;;2060973;28;20018;-68
2024/02/21 02:29:45;;;;;;;19.30;5.55;;;8.00;99.90;;;;;;2061241;28;20035;-68
2024/02/21 02:30:46;;;;;;;16.80;5.75;;;8.00;99.90;;;;;;2055709;28;20018;-68
2024/02/21 02:31:46;;;;;;;14.27;5.25;;;8.10;99.90;;;;;;2054268;28;20062;-68
2024/02/21 02:32:47;;;;;;;18.60;5.70;;;8.00;99.90;;;;;;2060587;28;20388;-68
2024/02/21 02:33:48;;;;;;;19.38;5.78;;;8.00;99.90;;;;;;2059213;28;20026;-69
2024/02/21 02:34:48;;;;;;;16.63;5.35;;;8.00;99.90;;;;;;2061410;28;20034;-69
2024/02/21 02:35:49;;;;;;;17.88;6.07;;;8.00;99.90;;;;;;2060584;28;20104;-69
2024/02/21 02:36:50;;;;;;;18.13;5.90;;;8.00;99.90;;;;;;2060745;28;20508;-69
2024/02/21 02:37:51;;;;;;;16.70;5.90;;;8.00;99.90;;;;;;2061606;28;20034;-69
2024/02/21 02:38:51;;;;;;;18.33;6.00;;;8.00;99.90;;;;;;2060845;28;20412;-69
2024/02/21 02:39:52;;;;;;;17.73;5.80;;;8.00;99.90;;;;;;2060906;28;20523;-69
2024/02/21 02:40:53;;;;;;;19.15;5.90;;;8.00;99.90;;;;;;2060301;28;20028;-68
2024/02/21 02:41:53;;;;;;;18.23;5.95;;;8.00;99.90;;;;;;2061633;28;20030;-69
2024/02/21 02:42:57;;;;;;;16.70;5.38;;;8.00;99.90;;;;;;2054670;28;20031;-68
2024/02/21 02:43:57;;;;;;;17.55;5.85;;;8.00;99.90;;;;;;2056820;28;20435;-69
2024/02/21 02:44:58;;;;;;;16.17;5.63;;;8.00;99.90;;;;;;2059514;28;20037;-70
2024/02/21 02:45:58;;;;;;;21.05;5.80;;;8.00;99.90;;;;;;2060060;28;20054;-68
2024/02/21 02:46:59;;;;;;;21.95;6.00;;;8.00;99.90;;;;;;2061116;28;20539;-69
2024/02/21 02:48:00;;;;;;;17.45;5.60;;;8.00;99.90;;;;;;2059637;28;20734;-69
2024/02/21 02:49:00;;;;;;;18.35;5.93;;;8.00;99.90;;;;;;2053319;28;20030;-68
2024/02/21 02:50:02;;;;;;;16.23;5.57;;;8.00;99.90;;;;;;2060286;28;20034;-69
2024/02/21 02:51:02;;;;;;;17.45;5.93;;;8.00;99.90;;;;;;2059990;28;20085;-68
2024/02/21 02:52:03;;;;;;;17.67;5.45;;;8.00;99.90;;;;;;2061970;28;20436;-68
2024/02/21 02:53:04;;;;;;;19.52;6.15;;;8.00;99.90;;;;;;2061187;28;20033;-68
2024/02/21 02:54:05;;;;;;;17.38;5.80;;;8.00;99.90;;;;;;2057976;28;20034;-69
2024/02/21 02:55:06;;;;;;;18.00;5.50;;;8.00;99.90;;;;;;2058318;28;20495;-69
2024/02/21 02:56:07;;;;;;;14.70;5.57;;;8.00;99.90;;;;;;2054183;28;20484;-70
2024/02/21 02:57:07;;;;;;;17.63;5.88;;;8.00;99.90;;;;;;2059118;28;20046;-69
2024/02/21 02:58:08;;;;;;;19.75;5.65;;;8.00;99.90;;;;;;2056716;28;20421;-69
2024/02/21 02:59:09;;;;;;;19.25;6.03;;;8.00;99.90;;;;;;2060481;28;20395;-69
2024/02/21 03:00:14;;;;;;;19.33;5.47;;;8.00;99.90;;;;;;2055621;28;20038;-69
2024/02/21 03:01:14;;;;;;;18.33;5.95;;;7.90;99.90;;;;;;2057442;28;20108;-69
2024/02/21 03:02:15;;;;;;;21.33;5.97;;;8.00;99.90;;;;;;2060979;28;20081;-70
2024/02/21 03:03:16;;;;;;;17.30;5.78;;;8.00;99.90;;;;;;2060465;28;20397;-69
2024/02/21 03:04:16;;;;;;;19.30;5.85;;;7.90;99.90;;;;;;2061482;28;20022;-68
2024/02/21 03:05:19;;;;;;;18.13;5.85;;;7.90;99.90;;;;;;2056311;28;20027;-69
2024/02/21 03:06:20;;;;;;;15.27;5.95;;;7.90;99.90;;;;;;2060190;28;20392;-69
2024/02/21 03:07:20;;;;;;;19.48;5.80;;;7.90;99.90;;;;;;2060851;28;20049;-68
2024/02/21 03:08:22;;;;;;;16.10;5.80;;;7.90;99.90;;;;;;2060363;28;20169;-68
2024/02/21 03:09:23;;;;;;;21.17;6.20;;;7.90;99.90;;;;;;2060747;28;20500;-68
2024/02/21 03:10:23;;;;;;;19.55;6.10;;;7.90;99.90;;;;;;2060896;28;20030;-68
2024/02/21 03:11:28;;;;;;;20.40;5.85;;;7.90;99.90;;;;;;2060283;28;20484;-69
2024/02/21 03:12:29;;;;;;;16.80;5.65;;;7.90;99.90;;;;;;2060984;28;20034;-69
2024/02/21 03:13:29;;;;;;;22.65;6.22;;;7.90;99.90;;;;;;2058616;28;20725;-69
2024/02/21 03:14:30;;;;;;;20.85;6.20;;;7.90;99.90;;;;;;2053811;28;20038;-69
2024/02/21 03:15:31;;;;;;;17.20;5.80;;;7.90;99.90;;;;;;2060684;28;20038;-68
2024/02/21 03:16:32;;;;;;;18.17;5.70;;;7.90;99.90;;;;;;2060965;28;20465;-69
2024/02/21 03:17:36;;;;;;;17.52;5.70;;;7.90;99.90;;;;;;2060847;28;20023;-68
2024/02/21 03:18:36;;;;;;;19.10;6.10;;;7.90;99.90;;;;;;2060965;28;20030;-68
2024/02/21 03:19:37;;;;;;;16.33;6.35;;;7.90;99.90;;;;;;2053930;28;20509;-69
2024/02/21 03:20:37;;;;;;;18.40;5.95;;;7.90;99.90;;;;;;2059137;28;20030;-68
2024/02/21 03:21:38;;;;;;;19.30;5.93;;;7.90;99.90;;;;;;2061510;28;20058;-68
2024/02/21 03:22:39;;;;;;;17.77;6.45;;;7.90;99.90;;;;;;2060832;28;20034;-68
2024/02/21 03:23:40;;;;;;;19.55;6.07;;;7.90;99.90;;;;;;2060608;28;20126;-69
2024/02/21 03:24:40;;;;;;;17.80;6.03;;;7.90;99.90;;;;;;2057573;28;20034;-69
2024/02/21 03:25:41;;;;;;;19.10;6.22;;;7.90;99.90;;;;;;2053759;28;20110;-68
2024/02/21 03:26:41;;;;;;;17.73;6.20;;;8.00;99.90;;;;;;2056210;28;20081;-69
2024/02/21 03:27:43;;;;;;;16.75;6.07;;;7.90;99.90;;;;;;2061633;28;20065;-69
2024/02/21 03:28:46;;;;;;;19.15;6.30;;;7.90;99.90;;;;;;2060779;28;20031;-70
2024/02/21 03:29:46;;;;;;;18.27;5.90;;;7.90;99.90;;;;;;2060390;28;20117;-70
2024/02/21 03:30:47;;;;;;;23.88;6.50;;;7.90;99.90;;;;;;2060222;28;20076;-70
2024/02/21 03:31:47;;;;;;;15.70;5.68;;;7.90;99.90;;;;;;2053966;28;20034;-70
2024/02/21 03:32:48;;;;;;;16.95;6.00;;;7.90;99.90;;;;;;2059757;28;20042;-69
2024/02/21 03:33:49;;;;;;;22.65;6.60;;;7.90;99.90;;;;;;2057183;28;20034;-69
2024/02/21 03:34:49;;;;;;;18.90;5.88;;;7.90;99.90;;;;;;2060836;28;20117;-69
2024/02/21 03:35:50;;;;;;;18.77;6.13;;;7.90;99.90;;;;;;2056869;28;20034;-69
2024/02/21 03:36:50;;;;;;;17.20;6.07;;;7.90;99.90;;;;;;2056738;28;20038;-69
2024/02/21 03:37:51;;;;;;;23.20;5.93;;;7.90;99.90;;;;;;2058052;28;20034;-69
2024/02/21 03:38:51;;;;;;;15.13;6.20;;;7.90;99.90;;;;;;2051804;28;20050;-69
2024/02/21 03:39:52;;;;;;;13.75;6.28;;;7.90;99.90;;;;;;2057265;28;20044;-69
2024/02/21 03:40:53;;;;;;;19.25;6.10;;;8.00;99.90;;;;;;2064775;28;20045;-86
2024/02/21 03:41:53;;;;;;;20.23;6.00;;;8.00;99.90;;;;;;2065693;28;20037;-90
2024/02/21 03:42:54;;;;;;;19.33;6.05;;;8.00;99.90;;;;;;2067520;28;20030;-89
2024/02/21 03:43:54;;;;;;;13.35;5.88;;;8.00;99.90;;;;;;2062416;28;20443;-86
2024/02/21 03:44:55;;;;;;;17.45;6.25;;;7.90;99.90;;;;;;2066051;28;20066;-89
2024/02/21 03:45:56;;;;;;;19.98;6.00;;;7.90;99.90;;;;;;2065662;28;20043;-88
2024/02/21 03:46:57;;;;;;;16.98;5.85;;;8.00;99.90;;;;;;2066218;28;20567;-89
2024/02/21 03:47:59;;;;;;;22.63;8.18;;;7.90;99.90;;;;;;2067961;28;20031;-88
2024/02/21 03:49:00;;;;;;;21.13;6.45;;;8.00;99.90;;;;;;2067503;28;20350;-89
2024/02/21 03:50:01;;;;;;;20.67;6.38;;;8.00;99.90;;;;;;2065392;28;20019;-89
2024/02/21 03:51:02;;;;;;;16.67;6.35;;;8.00;99.90;;;;;;2067079;28;20082;-88
2024/02/21 03:52:03;;;;;;;19.42;5.97;;;8.00;99.90;;;;;;2065894;28;20026;-89
2024/02/21 03:53:03;;;;;;;16.35;6.18;;;8.00;99.90;;;;;;2067759;28;20033;-89
2024/02/21 03:54:04;;;;;;;19.65;5.82;;;8.00;99.90;;;;;;2067290;28;20033;-89
2024/02/21 03:55:05;;;;;;;20.65;6.03;;;8.00;99.90;;;;;;2064495;28;20073;-88
2024/02/21 03:56:05;;;;;;;18.70;6.25;;;8.00;99.90;;;;;;2065862;28;20042;-87
2024/02/21 03:57:06;;;;;;;16.83;6.25;;;8.00;99.90;;;;;;2066528;28;20409;-88
2024/02/21 03:58:07;;;;;;;18.73;6.45;;;8.00;99.90;;;;;;2066719;28;20569;-88
2024/02/21 03:59:08;;;;;;;16.60;6.00;;;8.00;99.90;;;;;;2067674;28;20045;-89
2024/02/21 04:00:10;;;;;;;18.75;6.10;;;8.00;99.90;;;;;;2062631;28;20082;-89
2024/02/21 04:01:12;;;;;;;19.08;6.45;;;8.00;99.90;;;;;;2062825;28;20169;-89
2024/02/21 04:02:12;;;;;;;17.05;6.22;;;8.10;99.90;;;;;;2064781;28;20031;-87
2024/02/21 04:03:13;;;;;;;17.83;6.63;;;8.00;99.90;;;;;;2063877;28;20030;-88
2024/02/21 04:04:13;;;;;;;20.15;8.50;;;8.00;99.90;;;;;;2066288;28;20030;-86
2024/02/21 04:05:16;;;;;;;24.98;8.68;;;8.10;99.90;;;;;;2066315;28;20023;-88
2024/02/21 04:06:17;;;;;;;16.00;7.13;;;8.00;99.90;;;;;;2056870;28;20035;-88
2024/02/21 04:07:26;;;;;;;17.00;6.35;;;8.00;99.90;;;;;;2069270;28;20062;-89
2024/02/21 04:08:27;;;;;;;14.05;5.82;;;8.10;99.90;;;;;;2071872;28;20042;-89
2024/02/21 04:09:27;;;;;;;17.52;6.80;;;8.10;99.90;;;;;;2071855;28;20048;-90
2024/02/21 04:10:28;;;;;;;17.63;6.13;;;8.10;99.90;;;;;;2071939;28;20030;-89
2024/02/21 04:11:28;;;;;;;20.33;6.00;;;8.00;99.90;;;;;;2070032;28;20061;-89
2024/02/21 04:12:29;;;;;;;15.30;5.65;;;8.10;99.90;;;;;;2079061;28;20097;-88
2024/02/21 04:13:29;;;;;;;17.60;6.47;;;8.10;99.90;;;;;;2078802;28;20010;-88
2024/02/21 04:14:30;;;;;;;15.63;6.22;;;8.10;99.90;;;;;;2073340;28;20564;-88
2024/02/21 04:15:31;;;;;;;15.50;6.15;;;8.10;99.90;;;;;;2073247;28;20078;-87
2024/02/21 04:16:31;;;;;;;17.48;5.97;;;8.10;99.90;;;;;;2068349;28;20050;-86
2024/02/21 04:17:32;;;;;;;18.92;6.40;;;8.10;99.90;;;;;;2071806;28;20085;-89
2024/02/21 04:18:32;;;;;;;19.27;6.95;;;8.10;99.90;;;;;;2072325;28;20026;-89
2024/02/21 04:19:33;;;;;;;22.80;8.10;;;8.10;99.90;;;;;;2069727;28;20041;-89
2024/02/21 04:20:35;;;;;;;24.27;8.52;;;8.10;99.90;;;;;;2071910;28;20028;-86
2024/02/21 04:21:35;;;;;;;20.85;6.82;;;8.10;99.90;;;;;;2070458;28;20041;-86
2024/02/21 04:22:36;;;;;;;21.73;7.25;;;8.10;99.90;;;;;;2064855;28;20105;-88
2024/02/21 04:23:36;;;;;;;21.42;6.43;;;8.10;99.90;;;;;;2068132;28;20082;-88
2024/02/21 04:24:37;;;;;;;18.42;6.45;;;8.10;99.90;;;;;;2071120;28;20049;-87
2024/02/21 04:25:38;;;;;;;16.00;6.10;;;8.10;99.90;;;;;;2066391;28;20082;-90
2024/02/21 04:26:39;;;;;;;20.45;6.18;;;8.00;99.90;;;;;;2066846;28;20030;-88
2024/02/21 04:27:39;;;;;;;21.00;6.00;;;8.00;99.90;;;;;;2067445;28;20176;-88
2024/02/21 04:28:40;;;;;;;15.80;6.15;;;8.10;99.90;;;;;;2053688;28;20039;-89
2024/02/21 04:29:41;;;;;;;20.35;6.60;;;8.10;99.90;;;;;;2067036;28;20134;-89
2024/02/21 04:30:41;;;;;;;20.10;6.47;;;8.00;99.90;;;;;;2064054;28;20507;-88
2024/02/21 04:31:42;;;;;;;24.25;9.25;;;8.00;99.90;;;;;;2063443;28;20032;-87
2024/02/21 04:32:42;;;;;;;90.40;31.02;;;8.10;99.90;;;;;;2066375;28;20097;-88
2024/02/21 04:33:43;;;;;;;21.60;8.27;;;8.10;99.90;;;;;;2067495;28;20041;-88
2024/02/21 04:34:43;;;;;;;16.75;6.15;;;8.10;99.90;;;;;;2068816;28;20034;-88
2024/02/21 04:35:44;;;;;;;15.48;6.03;;;8.00;99.90;;;;;;2067503;28;20026;-87
2024/02/21 04:36:45;;;;;;;20.80;6.05;;;8.10;99.90;;;;;;2066950;28;20026;-87
2024/02/21 04:37:45;;;;;;;17.58;6.00;;;8.10;99.90;;;;;;2067034;28;20038;-88
2024/02/21 04:38:46;;;;;;;17.55;5.57;;;8.10;99.90;;;;;;2066995;28;20076;-86
2024/02/21 04:39:48;;;;;;;20.42;6.20;;;8.00;99.90;;;;;;2066946;28;20117;-88
2024/02/21 04:40:48;;;;;;;18.25;6.13;;;8.00;99.90;;;;;;2068104;28;20030;-88
2024/02/21 04:41:49;;;;;;;15.52;6.15;;;8.00;99.90;;;;;;2068353;28;20026;-88
2024/02/21 04:42:49;;;;;;;16.33;6.03;;;8.00;99.90;;;;;;2068238;28;20118;-88
2024/02/21 04:43:50;;;;;;;16.77;6.43;;;8.00;99.90;;;;;;2068442;28;20090;-88
2024/02/21 04:44:50;;;;;;;19.65;7.90;;;8.00;99.90;;;;;;2060322;28;20035;-89
2024/02/21 04:45:53;;;;;;;19.45;7.47;;;8.00;99.90;;;;;;2062518;28;20101;-89
2024/02/21 04:46:53;;;;;;;28.83;8.98;;;8.00;99.90;;;;;;2064980;28;20064;-88
2024/02/21 04:47:54;;;;;;;20.40;7.68;;;8.00;99.90;;;;;;2067122;28;20022;-90
2024/02/21 04:48:55;;;;;;;26.83;9.57;;;8.00;99.90;;;;;;2066701;28;20500;-88
2024/02/21 04:49:56;;;;;;;26.55;9.90;;;8.00;99.90;;;;;;2066305;28;20042;-90
2024/02/21 04:50:56;;;;;;;24.63;9.45;;;7.90;99.90;;;;;;2067993;28;20042;-88
2024/02/21 04:51:57;;;;;;;25.13;9.32;;;8.00;99.90;;;;;;2072602;28;20032;-86
2024/02/21 04:52:57;;;;;;;22.38;8.90;;;7.90;99.90;;;;;;2070261;28;20090;-88
2024/02/21 04:53:58;;;;;;;21.83;8.30;;;7.90;99.90;;;;;;2069868;28;20029;-85
2024/02/21 04:54:58;;;;;;;22.52;7.47;;;7.90;99.90;;;;;;2074414;28;20021;-86
2024/02/21 04:55:59;;;;;;;18.90;7.38;;;7.90;99.90;;;;;;2070462;28;20061;-87
2024/02/21 04:57:00;;;;;;;18.63;6.97;;;7.90;99.90;;;;;;2072077;28;20050;-89
2024/02/21 04:58:02;;;;;;;14.70;6.18;;;7.90;99.90;;;;;;2071459;28;20018;-88
2024/02/21 04:59:02;;;;;;;15.13;6.13;;;7.90;99.90;;;;;;2065567;28;20023;-86
2024/02/21 05:00:03;;;;;;;14.52;5.88;;;7.90;99.90;;;;;;2067868;28;20029;-88
2024/02/21 05:01:04;;;;;;;21.40;7.40;;;7.90;99.90;;;;;;2064407;28;20042;-87
2024/02/21 05:02:04;;;;;;;16.70;6.78;;;8.00;99.90;;;;;;2068113;28;20026;-89
2024/02/21 05:03:05;;;;;;;17.98;7.00;;;8.00;99.90;;;;;;2067925;28;20022;-87
2024/02/21 05:04:06;;;;;;;20.17;6.47;;;7.90;99.90;;;;;;2068540;28;20022;-88
2024/02/21 05:05:06;;;;;;;15.48;6.20;;;8.00;99.90;;;;;;2069685;28;20125;-88
2024/02/21 05:06:07;;;;;;;19.60;6.45;;;8.00;99.90;;;;;;2073330;28;20186;-88
2024/02/21 05:07:08;;;;;;;18.67;6.40;;;8.00;99.90;;;;;;2067153;28;20053;-85
2024/02/21 05:08:10;;;;;;;19.85;6.20;;;8.00;99.90;;;;;;2062201;28;20460;-86
2024/02/21 05:09:12;;;;;;;16.90;6.22;;;8.10;99.90;;;;;;2065029;28;20085;-86
2024/02/21 05:10:12;;;;;;;17.58;6.40;;;8.10;99.90;;;;;;2065959;28;20054;-85
2024/02/21 05:11:13;;;;;;;17.05;6.32;;;8.10;99.90;;;;;;2065859;28;20108;-86
2024/02/21 05:12:13;;;;;;;16.88;6.28;;;8.10;99.90;;;;;;2064995;28;20022;-85
2024/02/21 05:13:15;;;;;;;21.67;6.38;;;8.10;99.90;;;;;;2064888;28;20033;-86
2024/02/21 05:14:16;;;;;;;19.20;6.18;;;8.10;99.90;;;;;;2062725;28;20527;-87
2024/02/21 05:15:16;;;;;;;18.48;6.53;;;8.10;99.90;;;;;;2065538;28;20057;-86
2024/02/21 05:16:19;;;;;;;19.80;6.85;;;8.10;99.90;;;;;;2067152;28;20069;-88
2024/02/21 05:17:19;;;;;;;17.88;6.50;;;8.20;99.90;;;;;;2057311;28;20031;-88
2024/02/21 05:18:20;;;;;;;20.48;6.72;;;8.10;99.90;;;;;;2065786;28;20022;-87